createdAt,value
2019-04-11T00:00:48.048Z,96427.23
2019-04-11T00:03:19.461Z,96424.08
2019-04-11T00:05:50.789Z,96421.52
2019-04-11T00:08:21.721Z,96421.52
2019-04-11T00:10:51.942Z,96427.23
2019-04-11T00:13:26.625Z,96423.72
2019-04-11T00:15:55.007Z,96429.58
2019-04-11T00:18:25.397Z,96431.88
2019-04-11T00:20:56.141Z,96429.58
2019-04-11T00:23:27.544Z,96432.61
2019-04-11T00:25:58.091Z,96426.89
2019-04-11T00:28:28.348Z,96435.91
2019-04-11T00:30:58.826Z,96437.25
2019-04-11T00:33:29.945Z,96437.25
2019-04-11T00:36:00.251Z,96435.42
2019-04-11T00:38:30.511Z,96438.59
2019-04-11T00:41:01.660Z,96442.62
2019-04-11T00:43:37.664Z,96441.17
2019-04-11T00:46:04.398Z,96440.80
2019-04-11T00:48:35.593Z,96436.28
2019-04-11T00:51:05.888Z,96438.59
2019-04-11T00:53:36.216Z,96438.11
2019-04-11T00:56:06.442Z,96443.34
2019-04-11T00:58:36.719Z,96447.03
2019-04-11T01:01:07.943Z,96444.47
2019-04-11T01:03:38.237Z,96447.16
2019-04-11T01:06:08.485Z,96447.16
2019-04-11T01:08:39.856Z,96448.50
2019-04-11T01:11:10.288Z,96453.36
2019-04-11T01:13:50.180Z,96450.67
2019-04-11T01:16:24.447Z,96451.53
2019-04-11T01:18:54.668Z,96452.27
2019-04-11T01:21:24.946Z,96450.32
2019-04-11T01:23:55.493Z,96456.55
2019-04-11T01:26:25.356Z,96457.03
2019-04-11T01:28:58.687Z,96455.69
2019-04-11T01:31:29.462Z,96459.33
2019-04-11T01:34:00.199Z,96455.44
2019-04-11T01:36:33.255Z,96458.50
2019-04-11T01:39:10.664Z,96457.25
2019-04-11T01:41:40.936Z,96459.94
2019-04-11T01:44:12.184Z,96460.93
2019-04-11T01:46:42.709Z,96460.93
2019-04-11T01:49:19.787Z,96453.23
2019-04-11T01:51:50.221Z,96453.23
2019-04-11T01:54:21.660Z,96446.65
2019-04-11T01:56:52.136Z,96439.68
2019-04-11T01:59:22.313Z,96436.04
2019-04-11T02:02:13.400Z,96438.34
2019-04-11T02:05:06.332Z,96437.00
2019-04-11T02:07:36.743Z,96441.28
2019-04-11T02:10:06.940Z,96433.71
2019-04-11T02:12:37.456Z,96432.14
2019-04-11T02:15:08.273Z,96429.55
2019-04-11T02:17:39.107Z,96422.23
2019-04-11T02:20:09.440Z,96417.98
2019-04-11T02:22:46.898Z,96426.87
2019-04-11T02:25:34.771Z,96432.75
2019-04-11T02:28:06.563Z,96423.36
2019-04-11T02:30:40.990Z,96428.21
2019-04-11T02:33:12.172Z,96419.81
2019-04-11T02:35:44.355Z,96420.77
2019-04-11T02:38:16.665Z,96421.25
2019-04-11T02:40:47.942Z,96421.77
2019-04-11T02:43:20.239Z,96427.10
2019-04-11T02:45:58.236Z,96425.41
2019-04-11T02:48:22.569Z,96418.57
2019-04-11T02:50:54.244Z,96418.22
2019-04-11T02:53:26.689Z,96422.25
2019-04-11T02:55:58.169Z,96422.25
2019-04-11T02:58:30.028Z,96422.73
2019-04-11T03:01:03.494Z,96427.71
2019-04-11T03:03:33.982Z,96426.11
2019-04-11T03:06:04.556Z,96428.32
2019-04-11T03:08:36.473Z,96432.47
2019-04-11T03:11:07.738Z,96436.50
2019-04-11T03:13:38.572Z,96441.52
2019-04-11T03:16:24.747Z,96441.39
2019-04-11T03:18:59.381Z,96442.59
2019-04-11T03:21:16.370Z,96445.41
2019-04-11T03:23:44.590Z,96448.83
2019-04-11T03:26:16.739Z,96449.78
2019-04-11T03:28:49.515Z,96449.44
2019-04-11T03:32:14.569Z,96447.70
2019-04-11T03:37:13.739Z,96453.59
2019-04-11T03:39:18.229Z,96461.38
2019-04-11T03:41:42.715Z,96457.10
2019-04-11T03:44:06.600Z,96456.27
2019-04-11T03:46:47.709Z,96453.33
2019-04-11T03:49:17.797Z,96454.67
2019-04-11T03:51:37.069Z,96454.20
2019-04-11T03:54:09.845Z,96448.44
2019-04-11T03:56:41.343Z,96459.52
2019-04-11T03:59:14.829Z,96458.22
2019-04-11T04:01:44.398Z,96461.60
2019-04-11T04:04:17.731Z,96460.64
2019-04-11T04:06:47.932Z,96460.04
2019-04-11T04:09:20.794Z,96466.02
2019-04-11T04:11:51.708Z,96462.72
2019-04-11T04:15:01.263Z,96467.36
2019-04-11T04:17:52.979Z,96472.11
2019-04-11T04:20:49.054Z,96480.90
2019-04-11T04:23:29.436Z,96479.08
2019-04-11T04:26:01.103Z,96494.67
2019-04-11T04:28:32.211Z,96499.69
2019-04-11T04:31:04.603Z,96496.14
2019-04-11T04:33:36.091Z,96501.98
2019-04-11T04:36:10.418Z,96501.89
2019-04-11T04:38:41.197Z,96502.11
2019-04-11T04:41:22.326Z,96507.87
2019-04-11T04:43:44.295Z,96504.70
2019-04-11T04:46:31.441Z,96504.70
2019-04-11T04:48:47.877Z,96508.22
2019-04-11T04:51:20.526Z,96507.73
2019-04-11T04:53:52.009Z,96510.91
2019-04-11T04:56:28.411Z,96507.87
2019-04-11T04:58:56.051Z,96515.79
2019-04-11T05:01:26.772Z,96514.92
2019-04-11T05:03:58.381Z,96513.84
2019-04-11T05:06:30.042Z,96521.03
2019-04-11T05:09:00.732Z,96520.20
2019-04-11T05:11:33.973Z,96523.72
2019-04-11T05:14:05.097Z,96525.92
2019-04-11T05:16:35.805Z,96521.42
2019-04-11T05:19:06.580Z,96524.70
2019-04-11T05:21:37.188Z,96524.97
2019-04-11T05:24:07.420Z,96524.70
2019-04-11T05:26:39.934Z,96532.03
2019-04-11T05:29:11.170Z,96540.34
2019-04-11T05:31:42.793Z,96538.39
2019-04-11T05:34:13.953Z,96543.75
2019-04-11T05:36:44.991Z,96545.70
2019-04-11T05:39:16.008Z,96555.70
2019-04-11T05:41:48.727Z,96545.45
2019-04-11T05:44:19.193Z,96553.76
2019-04-11T05:46:55.844Z,96557.78
2019-04-11T05:49:41.626Z,96558.86
2019-04-11T05:52:12.191Z,96559.95
2019-04-11T05:54:49.786Z,96554.84
2019-04-11T05:57:23.859Z,96557.05
2019-04-11T05:59:53.477Z,96555.58
2019-04-11T06:02:37.678Z,96562.41
2019-04-11T06:05:33.074Z,96559.12
2019-04-11T06:08:05.400Z,96565.45
2019-04-11T06:10:45.404Z,96560.20
2019-04-11T06:13:22.777Z,96571.33
2019-04-11T06:15:59.379Z,96575.36
2019-04-11T06:18:37.375Z,96574.75
2019-04-11T06:21:12.039Z,96568.13
2019-04-11T06:24:14.216Z,96577.66
2019-04-11T06:27:16.998Z,96573.41
2019-04-11T06:30:08.156Z,96577.79
2019-04-11T06:32:56.314Z,96588.17
2019-04-11T06:35:52.445Z,96592.20
2019-04-11T06:38:40.744Z,96599.38
2019-04-11T06:41:28.436Z,96608.30
2019-04-11T06:44:12.229Z,96606.95
2019-04-11T06:47:01.899Z,96610.00
2019-04-11T06:49:42.653Z,96623.54
2019-04-11T06:52:12.942Z,96626.23
2019-04-11T06:55:02.557Z,96623.16
2019-04-11T06:57:34.159Z,96632.55
2019-04-11T07:00:05.277Z,96630.61
2019-04-11T07:02:38.983Z,96632.07
2019-04-11T07:05:10.766Z,96637.83
2019-04-11T07:07:43.458Z,96634.75
2019-04-11T07:10:13.777Z,96635.02
2019-04-11T07:13:00.567Z,96636.58
2019-04-11T07:15:40.276Z,96644.02
2019-04-11T07:18:29.072Z,96639.91
2019-04-11T07:21:04.474Z,96644.77
2019-04-11T07:23:53.371Z,96641.85
2019-04-11T07:26:37.334Z,96656.02
2019-04-11T07:29:26.573Z,96651.60
2019-04-11T07:32:09.467Z,96653.93
2019-04-11T07:34:57.829Z,96658.44
2019-04-11T07:37:36.692Z,96662.21
2019-04-11T07:40:27.269Z,96665.89
2019-04-11T07:43:18.501Z,96670.86
2019-04-11T07:46:26.898Z,96674.41
2019-04-11T07:49:08.191Z,96679.18
2019-04-11T07:51:48.641Z,96680.77
2019-04-11T07:54:23.868Z,96680.77
2019-04-11T07:57:17.098Z,96686.14
2019-04-11T08:00:13.101Z,96682.34
2019-04-11T08:03:06.367Z,96686.62
2019-04-11T08:05:51.949Z,96690.16
2019-04-11T08:08:47.211Z,96690.91
2019-04-11T08:11:23.415Z,96694.06
2019-04-11T08:14:13.133Z,96699.44
2019-04-11T08:17:01.675Z,96695.77
2019-04-11T08:19:51.129Z,96697.62
2019-04-11T08:22:43.268Z,96703.73
2019-04-11T08:25:31.506Z,96707.75
2019-04-11T08:28:05.922Z,96705.16
2019-04-11T08:30:48.820Z,96704.56
2019-04-11T08:33:19.312Z,96713.00
2019-04-11T08:36:12.119Z,96711.78
2019-04-11T08:38:42.642Z,96712.14
2019-04-11T08:41:31.929Z,96711.66
2019-04-11T08:44:07.725Z,96717.50
2019-04-11T08:46:42.694Z,96717.89
2019-04-11T08:49:35.028Z,96713.75
2019-04-11T08:52:11.787Z,96720.06
2019-04-11T08:55:04.107Z,96729.97
2019-04-11T08:57:38.067Z,96734.48
2019-04-11T09:00:31.308Z,96726.90
2019-04-11T09:03:09.256Z,96737.28
2019-04-11T09:05:56.863Z,96723.86
2019-04-11T09:08:58.920Z,96730.80
2019-04-11T09:11:33.002Z,96732.14
2019-04-11T09:14:22.348Z,96730.59
2019-04-11T09:17:14.460Z,96735.70
2019-04-11T09:20:07.384Z,96736.56
2019-04-11T09:22:41.497Z,96737.52
2019-04-11T09:25:30.391Z,96728.63
2019-04-11T09:28:15.459Z,96746.91
2019-04-11T09:31:23.250Z,96747.42
2019-04-11T09:34:28.107Z,96749.59
2019-04-11T09:37:17.649Z,96743.75
2019-04-11T09:40:10.251Z,96740.59
2019-04-11T09:42:49.669Z,96737.42
2019-04-11T09:45:48.087Z,96752.28
2019-04-11T09:48:44.270Z,96749.12
2019-04-11T09:51:35.876Z,96755.47
2019-04-11T09:54:19.796Z,96755.09
2019-04-11T09:57:08.119Z,96753.53
2019-04-11T09:59:47.914Z,96757.17
2019-04-11T10:02:40.027Z,96761.67
2019-04-11T10:05:11.253Z,96758.52
2019-04-11T10:08:00.012Z,96756.31
2019-04-11T10:10:40.697Z,96759.86
2019-04-11T10:13:42.780Z,96763.53
2019-04-11T10:16:42.207Z,96767.44
2019-04-11T10:19:38.426Z,96767.05
2019-04-11T10:22:30.380Z,96771.07
2019-04-11T10:25:37.662Z,96770.98
2019-04-11T10:28:29.873Z,96773.76
2019-04-11T10:31:06.826Z,96780.11
2019-04-11T10:34:09.082Z,96773.88
2019-04-11T10:37:04.624Z,96775.22
2019-04-11T10:40:00.071Z,96778.17
2019-04-11T10:42:31.078Z,96777.42
2019-04-11T10:45:29.346Z,96781.81
2019-04-11T10:48:01.413Z,96781.33
2019-04-11T10:51:02.728Z,96783.15
2019-04-11T10:53:33.329Z,96783.15
2019-04-11T10:56:22.413Z,96786.43
2019-04-11T10:58:55.394Z,96790.10
2019-04-11T11:01:53.992Z,96794.61
2019-04-11T11:04:30.404Z,96794.48
2019-04-11T11:07:04.504Z,96799.85
2019-04-11T11:09:56.734Z,96799.37
2019-04-11T11:12:38.071Z,96809.37
2019-04-11T11:15:13.650Z,96807.91
2019-04-11T11:18:31.899Z,96812.92
2019-04-11T11:20:53.106Z,96816.47
2019-04-11T11:23:40.850Z,96810.59
2019-04-11T11:26:14.386Z,96812.33
2019-04-11T11:29:07.054Z,96818.64
2019-04-11T11:31:54.592Z,96823.06
2019-04-11T11:34:44.554Z,96825.75
2019-04-11T11:37:33.357Z,96826.02
2019-04-11T11:40:32.097Z,96827.56
2019-04-11T11:43:27.511Z,96832.06
2019-04-11T11:46:32.102Z,96829.77
2019-04-11T11:49:10.049Z,96837.70
2019-04-11T11:52:00.416Z,96837.23
2019-04-11T11:54:37.658Z,96843.47
2019-04-11T11:57:15.673Z,96837.23
2019-04-11T11:59:52.462Z,96838.92
2019-04-11T12:02:39.084Z,96842.21
2019-04-11T12:05:39.092Z,96844.41
2019-04-11T12:08:28.680Z,96845.87
2019-04-11T12:11:08.225Z,96846.00
2019-04-11T12:13:56.282Z,96845.76
2019-04-11T12:16:54.840Z,96847.22
2019-04-11T12:19:47.919Z,96846.23
2019-04-11T12:22:08.767Z,96849.31
2019-04-11T12:24:58.661Z,96850.66
2019-04-11T12:27:48.113Z,96851.40
2019-04-11T12:30:31.302Z,96849.91
2019-04-11T12:33:23.279Z,96847.58
2019-04-11T12:36:03.960Z,96842.72
2019-04-11T12:38:54.877Z,96845.02
2019-04-11T12:41:56.564Z,96848.17
2019-04-11T12:44:51.534Z,96850.38
2019-04-11T12:47:34.021Z,96849.63
2019-04-11T12:50:29.600Z,96848.09
2019-04-11T12:53:09.221Z,96855.48
2019-04-11T12:55:58.815Z,96850.77
2019-04-11T12:58:47.952Z,96849.04
2019-04-11T13:01:46.610Z,96853.66
2019-04-11T13:04:33.772Z,96849.16
2019-04-11T13:07:15.302Z,96852.20
2019-04-11T13:09:55.786Z,96854.05
2019-04-11T13:12:44.899Z,96853.55
2019-04-11T13:15:29.294Z,96854.88
2019-04-11T13:18:17.726Z,96855.39
2019-04-11T13:21:09.470Z,96858.91
2019-04-11T13:24:07.433Z,96858.67
2019-04-11T13:27:06.221Z,96860.84
2019-04-11T13:29:58.624Z,96859.03
2019-04-11T13:32:42.859Z,96863.92
2019-04-11T13:35:18.242Z,96863.45
2019-04-11T13:38:22.529Z,96863.92
2019-04-11T13:41:20.726Z,96863.45
2019-04-11T13:44:00.578Z,96867.55
2019-04-11T13:46:49.709Z,96867.55
2019-04-11T13:49:54.181Z,96866.48
2019-04-11T13:52:43.351Z,96869.77
2019-04-11T13:55:24.973Z,96867.55
2019-04-11T13:58:14.209Z,96865.86
2019-04-11T14:00:58.125Z,96865.11
2019-04-11T14:03:47.605Z,96862.94
2019-04-11T14:06:37.563Z,96857.21
2019-04-11T14:09:37.638Z,96865.62
2019-04-11T14:12:17.944Z,96859.30
2019-04-11T14:15:00.734Z,96863.45
2019-04-11T14:17:49.887Z,96856.22
2019-04-11T14:20:29.747Z,96860.25
2019-04-11T14:23:16.918Z,96852.70
2019-04-11T14:26:21.416Z,96859.19
2019-04-11T14:29:00.614Z,96857.56
2019-04-11T14:31:46.490Z,96858.08
2019-04-11T14:34:34.495Z,96858.83
2019-04-11T14:37:38.069Z,96855.98
2019-04-11T14:40:10.944Z,96857.33
2019-04-11T14:43:03.509Z,96861.36
2019-04-11T14:46:06.914Z,96861.71
2019-04-11T14:48:49.960Z,96863.53
2019-04-11T14:51:46.252Z,96864.99
2019-04-11T14:54:22.253Z,96863.17
2019-04-11T14:57:22.802Z,96867.71
2019-04-11T15:00:11.466Z,96865.14
2019-04-11T15:03:14.952Z,96863.45
2019-04-11T15:05:48.640Z,96862.73
2019-04-11T15:08:38.718Z,96857.98
2019-04-11T15:11:33.506Z,96846.89
2019-04-11T15:14:15.741Z,96857.12
2019-04-11T15:17:06.509Z,96846.98
2019-04-11T15:19:36.766Z,96850.05
2019-04-11T15:22:23.510Z,96851.01
2019-04-11T15:24:57.424Z,96845.05
2019-04-11T15:28:07.892Z,96848.13
2019-04-11T15:30:43.286Z,96847.41
2019-04-11T15:33:45.958Z,96846.66
2019-04-11T15:36:17.586Z,96846.39
2019-04-11T15:39:11.913Z,96856.53
2019-04-11T15:41:50.119Z,96847.88
2019-04-11T15:44:41.830Z,96848.75
2019-04-11T15:47:13.809Z,96848.03
2019-04-11T15:50:09.812Z,96853.52
2019-04-11T15:52:48.387Z,96847.55
2019-04-11T15:55:38.191Z,96850.36
2019-04-11T15:58:12.566Z,96849.49
2019-04-11T16:00:59.346Z,96852.92
2019-04-11T16:03:29.624Z,96848.54
2019-04-11T16:06:17.571Z,96852.56
2019-04-11T16:09:00.554Z,96860.70
2019-04-11T16:11:53.346Z,96858.69
2019-04-11T16:14:31.290Z,96855.61
2019-04-11T16:17:35.616Z,96858.30
2019-04-11T16:20:18.903Z,96858.41
2019-04-11T16:23:10.914Z,96859.16
2019-04-11T16:25:45.438Z,96864.53
2019-04-11T16:28:35.834Z,96870.11
2019-04-11T16:31:05.473Z,96862.20
2019-04-11T16:33:46.976Z,96866.98
2019-04-11T16:36:45.402Z,96868.83
2019-04-11T16:39:52.111Z,96866.50
2019-04-11T16:42:42.264Z,96867.84
2019-04-11T16:45:40.348Z,96865.75
2019-04-11T16:48:10.776Z,96871.60
2019-04-11T16:50:41.103Z,96869.66
2019-04-11T16:53:11.773Z,96865.88
2019-04-11T16:55:43.333Z,96872.70
2019-04-11T16:58:17.129Z,96872.47
2019-04-11T17:00:45.815Z,96875.75
2019-04-11T17:03:17.423Z,96875.00
2019-04-11T17:05:56.435Z,96873.78
2019-04-11T17:08:43.567Z,96875.48
2019-04-11T17:11:18.948Z,96877.41
2019-04-11T17:13:49.470Z,96880.61
2019-04-11T17:16:20.753Z,96881.56
2019-04-11T17:18:51.044Z,96882.63
2019-04-11T17:21:23.193Z,96877.66
2019-04-11T17:23:53.310Z,96878.72
2019-04-11T17:26:23.959Z,96884.20
2019-04-11T17:28:54.723Z,96885.91
2019-04-11T17:31:26.060Z,96887.76
2019-04-11T17:34:01.549Z,96884.20
2019-04-11T17:36:30.710Z,96894.67
2019-04-11T17:39:01.997Z,96898.81
2019-04-11T17:41:33.827Z,96898.34
2019-04-11T17:44:04.093Z,96902.38
2019-04-11T17:46:37.134Z,96897.59
2019-04-11T17:49:07.389Z,96898.94
2019-04-11T17:51:37.676Z,96907.07
2019-04-11T17:54:07.871Z,96909.08
2019-04-11T17:56:38.204Z,96914.17
2019-04-11T17:59:08.407Z,96921.64
2019-04-11T18:01:38.699Z,96923.45
2019-04-11T18:04:11.233Z,96920.66
2019-04-11T18:06:41.020Z,96924.31
2019-04-11T18:09:13.095Z,96932.65
2019-04-11T18:11:43.724Z,96929.30
2019-04-11T18:14:13.985Z,96930.28
2019-04-11T18:16:44.547Z,96931.90
2019-04-11T18:19:14.786Z,96933.33
2019-04-11T18:21:45.090Z,96941.38
2019-04-11T18:24:15.468Z,96943.59
2019-04-11T18:26:45.707Z,96942.36
2019-04-11T18:29:16.032Z,96945.16
2019-04-11T18:31:46.488Z,96958.08
2019-04-11T18:34:17.845Z,96963.56
2019-04-11T18:36:48.153Z,96969.05
2019-04-11T18:39:18.531Z,96972.09
2019-04-11T18:41:48.799Z,96978.80
2019-04-11T18:44:21.259Z,96975.64
2019-04-11T18:46:51.750Z,96968.19
2019-04-11T18:49:23.264Z,96979.95
2019-04-11T18:51:53.771Z,96983.47
2019-04-11T18:54:24.040Z,96988.24
2019-04-11T18:56:54.371Z,96985.95
2019-04-11T18:59:24.727Z,96986.31
2019-04-11T19:01:54.961Z,96988.41
2019-04-11T19:04:32.269Z,96986.59
2019-04-11T19:06:57.173Z,96983.78
2019-04-11T19:09:27.621Z,96985.83
2019-04-11T19:11:57.862Z,96992.83
2019-04-11T19:14:28.120Z,96991.64
2019-04-11T19:16:58.415Z,96992.59
2019-04-11T19:19:29.727Z,96988.09
2019-04-11T19:21:59.947Z,96991.16
2019-04-11T19:24:35.755Z,96983.94
2019-04-11T19:27:03.643Z,96986.86
2019-04-11T19:29:34.008Z,96989.31
2019-04-11T19:32:04.314Z,96989.91
2019-04-11T19:34:34.694Z,96992.00
2019-04-11T19:37:05.037Z,96986.16
2019-04-11T19:39:35.716Z,96991.64
2019-04-11T19:42:09.073Z,96990.06
2019-04-11T19:44:40.681Z,96989.23
2019-04-11T19:47:11.076Z,96988.64
2019-04-11T19:49:41.497Z,96990.73
2019-04-11T19:52:11.868Z,96990.17
2019-04-11T19:54:42.188Z,97000.05
2019-04-11T19:57:12.460Z,96997.92
2019-04-11T19:59:42.832Z,96994.25
2019-04-11T20:02:17.002Z,96997.05
2019-04-11T20:04:49.014Z,96987.77
2019-04-11T20:07:19.304Z,96988.64
2019-04-11T20:09:50.603Z,96994.00
2019-04-11T20:12:20.811Z,96999.27
2019-04-11T20:14:51.114Z,96998.39
2019-04-11T20:17:21.364Z,96994.67
2019-04-11T20:20:00.923Z,96999.45
2019-04-11T20:22:23.671Z,96995.42
2019-04-11T20:24:53.925Z,96997.72
2019-04-11T20:27:24.302Z,97006.92
2019-04-11T20:29:55.333Z,97006.56
2019-04-11T20:32:25.858Z,97001.79
2019-04-11T20:34:56.244Z,97005.42
2019-04-11T20:37:38.503Z,97009.38
2019-04-11T20:39:59.547Z,97003.61
2019-04-11T20:42:29.857Z,97012.89
2019-04-11T20:45:00.142Z,97006.92
2019-04-11T20:47:30.715Z,97007.63
2019-04-11T20:50:07.249Z,97002.42
2019-04-11T20:52:33.302Z,97010.12
2019-04-11T20:55:08.878Z,97011.03
2019-04-11T20:57:40.493Z,97006.61
2019-04-11T21:00:12.416Z,97000.56
2019-04-11T21:02:42.714Z,96999.22
2019-04-11T21:05:14.656Z,96997.37
2019-04-11T21:07:44.899Z,96998.78
2019-04-11T21:10:15.173Z,97002.11
2019-04-11T21:12:45.504Z,96999.26
2019-04-11T21:15:15.750Z,97007.59
2019-04-11T21:17:46.038Z,97015.81
2019-04-11T21:20:16.329Z,97011.03
2019-04-11T21:22:46.606Z,97014.19
2019-04-11T21:25:17.056Z,97017.19
2019-04-11T21:27:47.489Z,97019.28
2019-04-11T21:30:17.713Z,97014.50
2019-04-11T21:32:48.021Z,97022.95
2019-04-11T21:35:19.464Z,97022.95
2019-04-11T21:37:48.787Z,97021.02
2019-04-11T21:40:19.512Z,97024.18
2019-04-11T21:42:49.843Z,97013.91
2019-04-11T21:45:20.081Z,97019.95
2019-04-11T21:47:50.393Z,97022.36
2019-04-11T21:50:23.201Z,97017.62
2019-04-11T21:52:53.513Z,97019.84
2019-04-11T21:55:23.767Z,97018.10
2019-04-11T21:57:54.130Z,97017.27
2019-04-11T22:00:39.597Z,97007.20
2019-04-11T22:03:13.584Z,97008.34
2019-04-11T22:05:43.927Z,97009.13
2019-04-11T22:08:14.194Z,97015.65
2019-04-11T22:10:44.496Z,97014.50
2019-04-11T22:13:14.803Z,97005.97
2019-04-11T22:15:45.112Z,97008.30
2019-04-11T22:18:16.715Z,97013.08
2019-04-11T22:20:47.286Z,97012.33
2019-04-11T22:23:17.631Z,97017.94
2019-04-11T22:25:47.880Z,97020.16
2019-04-11T22:28:18.403Z,97010.75
2019-04-11T22:30:49.047Z,97017.19
2019-04-11T22:33:32.809Z,97015.77
2019-04-11T22:36:03.068Z,97016.59
2019-04-11T22:38:33.436Z,97014.90
2019-04-11T22:41:03.729Z,97008.19
2019-04-11T22:43:37.936Z,97014.14
2019-04-11T22:46:12.015Z,97008.66
2019-04-11T22:48:40.492Z,97010.23
2019-04-11T22:51:11.265Z,97007.91
2019-04-11T22:53:43.310Z,97006.88
2019-04-11T22:56:15.238Z,97006.56
2019-04-11T22:58:45.595Z,97006.95
2019-04-11T23:01:16.606Z,97007.75
2019-04-11T23:03:51.101Z,97011.06
2019-04-11T23:06:21.378Z,97010.43
2019-04-11T23:08:51.732Z,97011.58
2019-04-11T23:11:22.066Z,97004.70
2019-04-11T23:13:52.372Z,97008.97
2019-04-11T23:16:22.699Z,97011.30
2019-04-11T23:18:52.954Z,97005.06
2019-04-11T23:21:23.287Z,97013.98
2019-04-11T23:23:53.530Z,97009.56
2019-04-11T23:26:24.205Z,97007.75
2019-04-11T23:28:54.464Z,97007.27
2019-04-11T23:31:24.726Z,97013.87
2019-04-11T23:33:54.933Z,97015.60
2019-04-11T23:36:25.203Z,97015.20
2019-04-11T23:38:55.443Z,97014.34
2019-04-11T23:41:25.740Z,97008.73
2019-04-11T23:43:56.055Z,97011.14
2019-04-11T23:46:26.331Z,97011.89
2019-04-11T23:48:56.642Z,97006.24
2019-04-11T23:51:26.970Z,97002.97
2019-04-11T23:53:59.696Z,97013.43
2019-04-11T23:56:30.740Z,97007.98
2019-04-11T23:59:02.135Z,97007.23
